Terminal Aerodrome Forecast
Issued by NWS

Home | Current Version | Previous Version | Graphics & Text | Print | Product List | Glossary On
Versions: 1 2 3 4 5 6 7 8 9 10 11 12 13 14 15
000
FTUS43 KICT 100500
TAFRSL
TAF
KRSL 100527Z 1006/1106 14011KT P6SM VCTS SCT080CB BKN150
      TEMPO 1006/1010 6SM -TSRA BKN040CB
     FM101000 16015G22KT P6SM SCT100 BKN150
     FM101600 17021G30KT P6SM SCT200
     FM110200 17016G23KT P6SM SKC=

USA.gov is the U.S. government's official web portal to all federal, state and local government web resources and services.